Active alerts


No alerts


weather webcam more information weather webcam


Thunder radar more information blitzortung!


Rain radar more information rain snow radar


Visit our other weather sites:

Template documentation
and downloads

And another site


Nearby METAR Reports

   
EBBR - Brussels International Airport, Belgium
Distance from station: W 9 mi
Updated: Aug 14 2018 8:20 pm
Clear  
Clear  
   Wind: SW 6.9 mph
Wind: SW 6.9 mph
Temperature: 60.8°F
Dew Point: 55.4°F
Humidity: 83%
Barometer: 30.09 inHg
Visibility: More than 6 mi
Cloud details: Clear
EBBR 150120Z 22006KT CAVOK 16/13 Q1019 NOSIG
EBBE - Beauvechain (Bevekom), Belgium
Distance from station: SSE 10 mi
Updated: Aug 14 2018 7:55 pm
Clear  
Clear  
   Wind: SW 6.9 mph
Wind: SW 6.9 mph
Temperature: 59°F
Dew Point: 55.4°F
Humidity: 88%
Barometer: 30.09 inHg
Clouds: Clear
Visibility: More than 6 mi
Cloud details: Clear
EBBE 150055Z AUTO 22006KT 9999 NCD 15/13 Q1019 BLU
EBDT - Schaffen, Belgium
Distance from station: ENE 18 mi
Updated: Aug 14 2018 7:55 pm
Mostly Cloudy  
Mostly Cloudy  
   Wind: SW 5.8 mph
Wind: SW 5.8 mph
Temperature: 60.8°F
Dew Point: 55.4°F
Humidity: 83%
Barometer: 30.09 inHg
Clouds: Mostly Cloudy
Visibility: More than 6 mi
Cloud details: Mostly Cloudy 5500 ft
EBDT 150055Z AUTO 23005KT 9999 BKN055/// 16/13 Q1019 BLU
EBAW - Antwerp/Deurne, Belgium
Distance from station: NNW 23 mi
Updated: Aug 14 2018 8:20 pm
Clear  
Clear  
   Wind: SW 6.9 mph
Wind: SW 6.9 mph
Temperature: 64.4°F
Dew Point: 57.2°F
Humidity: 78%
Barometer: 30.06 inHg
Visibility: More than 6 mi
Cloud details: Clear
EBAW 150120Z AUTO 22006KT 190V250 CAVOK 18/14 Q1018
EBCI - Charleroi/Gosselies, Belgium
Distance from station: SSW 32 mi
Updated: Aug 14 2018 8:20 pm
Clear  
Clear  
   Wind: SW 8.1 mph
Wind: SW 8.1 mph
Temperature: 59°F
Dew Point: 55.4°F
Humidity: 88%
Barometer: 30.12 inHg
Visibility: More than 6 mi
Cloud details: Clear
EBCI 150120Z 22007KT CAVOK 15/13 Q1020 NOSIG
EBLG - Bierset/Liege, Belgium
Distance from station: ESE 38 mi
Updated: Aug 14 2018 8:20 pm
Partly Cloudy  
Partly Cloudy  
   Wind: SW 8.1 mph
Wind: SW 8.1 mph
Temperature: 59°F
Dew Point: 55.4°F
Humidity: 88%
Barometer: 30.09 inHg
Clouds: Partly Cloudy
Visibility: More than 6 mi
Cloud details: Partly Cloudy 4600 ft
EBLG 150120Z 23007KT 9999 SCT046 15/13 Q1019 NOSIG

Script developed by  Saratoga-weather.org Adapted for the template by  Weerstation Leuven

You find our weather info also at:

Weather Underground

Midwestern Weather Network

Citizen Weather Observer Program (CWOP)

HAMweather, WeatherForYou, PWS Weather

Equipment we use:

Weather-station
Davis VP2

Weather-program
Cumulus

Davis VP2

Cumulus